Time;durP1;ratioP1;P1;durP2;ratioP2;P2;SDS_P1;SDS_P2;PMS_P1;PMS_P2;Temp;Humidity;BMP_temperature;BMP_pressure;BME280_temperature;BME280_humidity;BME280_pressure;Samples;Min_cycle;Max_cycle;Signal;HPM_P1;HPM_P2
2021/06/27 00:02:11;;;;;;;25.33;22.80;;;;;;;17.67;81.29;101614.53;5213466;28;20046;-65
2021/06/27 00:04:42;;;;;;;27.23;24.17;;;;;;;17.66;82.00;101610.22;5213158;28;20228;-66
2021/06/27 00:07:13;;;;;;;24.25;21.92;;;;;;;17.61;81.93;101609.84;5213759;28;20076;-65
2021/06/27 00:09:45;;;;;;;25.02;21.73;;;;;;;17.68;81.57;101616.19;5211700;28;20032;-65
2021/06/27 00:12:16;;;;;;;27.63;24.83;;;;;;;17.63;81.98;101609.72;5214122;28;20022;-66
2021/06/27 00:14:48;;;;;;;26.90;24.15;;;;;;;17.62;81.14;101610.72;5212858;28;20387;-65
2021/06/27 00:17:19;;;;;;;26.20;23.65;;;;;;;17.63;81.76;101602.59;5212459;28;20107;-68
2021/06/27 00:19:50;;;;;;;24.98;22.50;;;;;;;17.60;81.54;101610.84;5212582;28;20038;-68
2021/06/27 00:22:21;;;;;;;26.47;23.97;;;;;;;17.61;80.97;101609.84;5211637;28;20781;-68
2021/06/27 00:24:53;;;;;;;26.70;24.10;;;;;;;17.62;80.96;101603.59;5212744;28;20033;-68
2021/06/27 00:27:24;;;;;;;28.37;25.47;;;;;;;17.61;81.19;101607.19;5213331;28;20034;-68
2021/06/27 00:29:56;;;;;;;28.90;26.00;;;;;;;17.62;80.61;101606.25;5212349;28;20144;-67
2021/06/27 00:32:27;;;;;;;28.08;25.33;;;;;;;17.58;80.98;101601.38;5213012;28;20034;-68
2021/06/27 00:34:58;;;;;;;29.67;26.37;;;;;;;17.63;80.09;101599.13;5212763;28;20356;-68
2021/06/27 00:37:29;;;;;;;27.77;25.17;;;;;;;17.60;80.44;101602.91;5213509;28;20109;-67
2021/06/27 00:40:04;;;;;;;28.23;25.42;;;;;;;17.64;80.08;101600.75;5212724;28;20034;-68
2021/06/27 00:42:35;;;;;;;28.77;25.88;;;;;;;17.62;80.02;101598.28;5211982;28;20366;-68
2021/06/27 00:45:10;;;;;;;28.38;25.60;;;;;;;17.60;80.78;101597.59;5211962;28;20053;-68
2021/06/27 00:47:43;;;;;;;27.90;25.15;;;;;;;17.59;81.23;101592.47;5211269;28;20041;-67
2021/06/27 00:50:18;;;;;;;;;;;;;;;17.88;78.41;101592.13;5213032;28;20113;-68
2021/06/27 00:52:51;;;;;;;30.15;26.05;;;;;;;17.59;80.53;101589.81;5211920;28;20004;-68
2021/06/27 00:55:24;;;;;;;30.83;27.77;;;;;;;17.66;79.58;101588.19;5213428;28;20057;-68
2021/06/27 00:57:56;;;;;;;;;;;;;;;17.92;78.71;101582.88;5212591;28;20037;-68
2021/06/27 01:00:32;;;;;;;28.17;25.20;;;;;;;17.71;79.36;101581.44;5211625;28;19914;-68
2021/06/27 01:03:04;;;;;;;28.73;25.83;;;;;;;17.62;79.93;101584.22;5211979;28;20128;-68
2021/06/27 01:05:39;;;;;;;29.20;26.20;;;;;;;17.78;78.81;101575.53;5212042;28;20463;-68
2021/06/27 01:08:11;;;;;;;28.88;25.85;;;;;;;17.81;79.19;101585.81;5212986;28;20025;-68
2021/06/27 01:10:42;;;;;;;29.67;26.73;;;;;;;17.78;79.25;101583.47;5216680;28;20561;-66
2021/06/27 01:13:18;;;;;;;31.95;28.55;;;;;;;17.77;79.82;101585.31;5216180;28;20523;-67
2021/06/27 01:15:51;;;;;;;31.88;28.67;;;;;;;17.74;79.78;101596.19;5216101;28;20340;-66
2021/06/27 01:18:22;;;;;;;32.47;29.27;;;;;;;17.71;80.04;101584.06;5216761;28;20030;-66
2021/06/27 01:20:54;;;;;;;31.60;28.37;;;;;;;17.72;79.45;101585.72;5216513;28;20029;-66
2021/06/27 01:23:25;;;;;;;32.22;28.90;;;;;;;17.71;80.69;101584.06;5215680;28;20113;-66
2021/06/27 01:25:56;;;;;;;31.52;28.35;;;;;;;17.77;79.71;101584.44;5215729;28;20029;-66
2021/06/27 01:28:28;;;;;;;31.70;28.65;;;;;;;17.72;80.04;101579.59;5217017;28;20034;-65
2021/06/27 01:30:59;;;;;;;31.83;28.67;;;;;;;17.72;79.78;101577.78;5215513;28;20042;-66
2021/06/27 01:33:31;;;;;;;31.65;28.63;;;;;;;17.72;80.23;101576.94;5214604;28;20124;-66
2021/06/27 01:36:03;;;;;;;33.30;30.10;;;;;;;17.62;81.10;101569.13;5215986;28;20037;-66
2021/06/27 01:38:35;;;;;;;30.80;27.60;;;;;;;17.64;80.39;101568.97;5216611;28;20029;-65
2021/06/27 01:41:06;;;;;;;33.83;30.53;;;;;;;17.62;80.64;101570.97;5216134;28;20112;-66
2021/06/27 01:43:38;;;;;;;31.75;28.55;;;;;;;17.61;80.59;101566.63;5214241;28;20226;-66
2021/06/27 01:46:09;;;;;;;32.35;29.05;;;;;;;17.55;81.16;101567.28;5215911;28;20171;-67
2021/06/27 01:48:40;;;;;;;30.42;27.52;;;;;;;17.52;81.29;101577.19;5216358;28;20030;-66
2021/06/27 01:51:12;;;;;;;32.10;29.00;;;;;;;17.51;81.47;101578.19;5216204;28;20048;-66
2021/06/27 01:53:43;;;;;;;31.90;28.75;;;;;;;17.50;81.33;101578.31;5213738;28;20360;-65
2021/06/27 01:56:14;;;;;;;30.35;27.48;;;;;;;17.45;81.74;101576.16;5215648;28;20426;-66
2021/06/27 01:58:50;;;;;;;31.10;27.92;;;;;;;17.43;82.18;101585.28;5215603;28;20664;-66
2021/06/27 02:01:26;;;;;;;30.30;27.27;;;;;;;17.38;82.13;101582.25;5211136;28;20422;-66
2021/06/27 02:03:57;;;;;;;30.20;27.17;;;;;;;17.38;82.27;101585.72;5214055;28;20026;-66
2021/06/27 02:06:32;;;;;;;31.65;28.30;;;;;;;17.40;82.11;101585.56;5214679;28;20092;-66
2021/06/27 02:09:07;;;;;;;31.80;28.75;;;;;;;17.38;82.66;101584.88;5223900;28;20068;-66
2021/06/27 02:11:40;;;;;;;30.08;26.75;;;;;;;17.35;83.00;101585.19;5213347;28;20041;-66
2021/06/27 02:14:11;;;;;;;29.70;26.65;;;;;;;17.35;82.89;101587.84;5213580;28;20328;-66
2021/06/27 02:16:42;;;;;;;31.65;28.52;;;;;;;17.32;82.91;101591.66;5212545;28;20052;-66
2021/06/27 02:19:14;;;;;;;32.13;28.95;;;;;;;17.35;82.84;101590.50;5215642;28;20017;-66
2021/06/27 02:21:45;;;;;;;31.58;28.42;;;;;;;17.31;83.15;101594.44;5214142;28;20030;-66
2021/06/27 02:24:16;;;;;;;32.22;28.77;;;;;;;17.33;83.24;101592.47;5214867;28;20692;-67
2021/06/27 02:26:47;;;;;;;32.38;29.10;;;;;;;17.30;83.50;101579.53;5213810;28;20040;-66
2021/06/27 02:29:19;;;;;;;33.00;29.65;;;;;;;17.27;83.80;101573.59;5215218;28;20026;-66
2021/06/27 02:31:51;;;;;;;31.48;28.17;;;;;;;17.34;83.75;101572.94;5215289;28;20036;-66
2021/06/27 02:34:22;;;;;;;32.50;29.00;;;;;;;17.23;84.04;101564.28;5215348;28;20060;-66
2021/06/27 02:36:53;;;;;;;34.47;31.02;;;;;;;17.24;83.98;101568.59;5213642;28;20037;-65
2021/06/27 02:39:25;;;;;;;33.78;30.45;;;;;;;17.19;84.89;101564.75;5214692;28;20030;-66
2021/06/27 02:41:57;;;;;;;32.33;29.17;;;;;;;17.21;84.98;101557.50;5215358;28;20537;-66
2021/06/27 02:44:28;;;;;;;32.17;28.98;;;;;;;17.17;84.76;101562.25;5215711;28;20260;-66
2021/06/27 02:47:00;;;;;;;32.70;29.40;;;;;;;17.12;84.72;101553.97;5212824;28;20039;-66
2021/06/27 02:49:31;;;;;;;32.50;29.25;;;;;;;17.16;85.00;101557.09;5214308;28;20415;-66
2021/06/27 02:52:02;;;;;;;32.97;29.75;;;;;;;17.12;85.64;101548.66;5214174;28;20053;-66
2021/06/27 02:54:34;;;;;;;33.20;29.80;;;;;;;17.08;86.12;101547.28;5214036;28;20340;-66
2021/06/27 02:57:06;;;;;;;33.00;29.70;;;;;;;17.04;86.09;101548.59;5214945;28;20056;-69
2021/06/27 02:59:37;;;;;;;32.80;29.50;;;;;;;17.02;86.69;101548.75;5213375;28;20076;-66
2021/06/27 03:02:08;;;;;;;34.30;30.95;;;;;;;17.05;87.25;101549.41;5214046;28;20503;-66
2021/06/27 03:04:40;;;;;;;32.53;29.13;;;;;;;17.00;87.29;101541.94;5213371;28;20201;-65
2021/06/27 03:07:11;;;;;;;32.10;28.70;;;;;;;17.00;87.60;101548.06;5214476;28;20038;-66
2021/06/27 03:09:42;;;;;;;32.88;29.52;;;;;;;16.92;88.25;101532.13;5213993;28;20483;-66
2021/06/27 03:12:14;;;;;;;33.13;29.73;;;;;;;16.96;88.07;101536.13;5214845;28;20089;-65
2021/06/27 03:14:45;;;;;;;32.53;29.30;;;;;;;16.94;88.17;101548.72;5212526;28;20034;-66
2021/06/27 03:17:16;;;;;;;31.45;28.25;;;;;;;16.94;88.32;101553.19;5215109;28;20029;-66
2021/06/27 03:19:48;;;;;;;32.33;29.02;;;;;;;16.92;88.70;101557.78;5214151;28;20030;-66
2021/06/27 03:22:19;;;;;;;32.08;28.67;;;;;;;16.90;89.07;101559.75;5212278;28;20061;-66
2021/06/27 03:24:50;;;;;;;31.27;28.05;;;;;;;16.91;89.17;101550.81;5213042;28;20471;-66
2021/06/27 03:27:21;;;;;;;33.05;29.75;;;;;;;16.87;89.34;101557.41;5212696;28;20486;-66
2021/06/27 03:29:53;;;;;;;31.77;28.52;;;;;;;16.85;89.28;101554.91;5214154;28;20546;-66
2021/06/27 03:32:24;;;;;;;33.53;30.23;;;;;;;16.85;89.10;101556.72;5212403;28;20060;-66
2021/06/27 03:34:55;;;;;;;31.70;28.30;;;;;;;16.84;89.52;101557.72;5213736;28;20030;-66
2021/06/27 03:37:27;;;;;;;33.95;30.33;;;;;;;16.80;89.97;101557.19;5213289;28;20351;-66
2021/06/27 03:39:58;;;;;;;34.55;31.17;;;;;;;16.78;90.39;101560.00;5213792;28;20022;-66
2021/06/27 03:42:30;;;;;;;32.50;29.23;;;;;;;16.79;90.48;101560.81;5213682;28;20083;-66
2021/06/27 03:45:01;;;;;;;32.92;28.85;;;;;;;16.80;90.87;101559.84;5213705;28;20032;-65
2021/06/27 03:47:32;;;;;;;32.90;29.30;;;;;;;16.82;90.79;101559.66;5212914;28;20033;-66
2021/06/27 03:50:04;;;;;;;32.67;29.17;;;;;;;16.82;90.92;101555.25;5213062;28;20036;-66
2021/06/27 03:52:36;;;;;;;32.50;29.10;;;;;;;16.82;91.00;101547.31;5213802;28;20382;-67
2021/06/27 03:55:08;;;;;;;31.58;28.38;;;;;;;16.81;91.47;101548.25;5213324;28;20034;-65
2021/06/27 03:57:39;;;;;;;32.15;28.75;;;;;;;16.84;91.11;101544.47;5212436;28;20042;-66
2021/06/27 04:00:11;;;;;;;32.72;29.33;;;;;;;16.87;91.36;101536.25;5212654;28;20379;-65
2021/06/27 04:02:43;;;;;;;34.67;27.75;;;;;;;16.88;91.21;101535.25;5208384;28;20046;-66
2021/06/27 04:05:14;;;;;;;31.25;28.13;;;;;;;16.89;90.92;101542.19;5212358;28;20033;-65
2021/06/27 04:07:45;;;;;;;32.22;29.10;;;;;;;16.89;90.75;101537.72;5211793;28;20061;-66
2021/06/27 04:10:17;;;;;;;32.67;29.25;;;;;;;16.93;90.92;101532.97;5212916;28;20026;-66
2021/06/27 04:12:48;;;;;;;31.85;28.45;;;;;;;16.95;91.12;101523.06;5212910;28;20107;-66
2021/06/27 04:15:19;;;;;;;31.08;27.85;;;;;;;17.00;90.81;101520.78;5214025;28;20014;-65
2021/06/27 04:17:51;;;;;;;32.63;29.17;;;;;;;17.03;90.75;101529.22;5212343;28;20041;-66
2021/06/27 04:20:22;;;;;;;29.83;26.65;;;;;;;17.10;90.29;101528.63;5213793;28;20021;-65
2021/06/27 04:22:53;;;;;;;29.17;26.23;;;;;;;17.08;90.02;101525.28;5213296;28;20118;-65
2021/06/27 04:25:24;;;;;;;30.25;27.02;;;;;;;17.15;90.46;101521.03;5212913;28;20034;-66
2021/06/27 04:27:56;;;;;;;31.63;26.17;;;;;;;17.15;90.38;101524.50;5212126;28;20029;-66
2021/06/27 04:30:27;;;;;;;30.05;27.15;;;;;;;17.13;90.39;101510.59;5212748;28;20105;-66
2021/06/27 04:32:58;;;;;;;29.45;26.45;;;;;;;17.17;90.24;101504.00;5213004;28;20030;-65
2021/06/27 04:35:33;;;;;;;29.92;26.90;;;;;;;17.16;90.20;101501.50;5211859;28;20053;-65
2021/06/27 04:38:09;;;;;;;28.95;25.95;;;;;;;17.19;90.42;101503.84;5211744;28;20034;-66
2021/06/27 04:40:40;;;;;;;29.52;26.50;;;;;;;17.12;90.90;101490.41;5212589;28;20459;-66
2021/06/27 04:43:12;;;;;;;29.20;26.25;;;;;;;17.24;90.36;101497.09;5212258;28;20117;-65
2021/06/27 04:45:44;;;;;;;29.13;26.10;;;;;;;17.23;90.34;101497.25;5212577;28;20482;-65
2021/06/27 04:48:15;;;;;;;28.95;25.95;;;;;;;17.26;90.34;101492.47;5212168;28;20033;-66
2021/06/27 04:50:47;;;;;;;30.35;26.77;;;;;;;17.25;89.98;101496.09;5210742;28;20112;-65
2021/06/27 04:53:18;;;;;;;27.42;24.60;;;;;;;17.29;90.43;101480.72;5212780;28;20144;-66
2021/06/27 04:55:50;;;;;;;27.85;25.15;;;;;;;17.34;90.29;101486.38;5212110;28;20045;-65
2021/06/27 04:58:21;;;;;;;28.00;25.30;;;;;;;17.38;89.83;101486.88;5213453;28;20371;-66
2021/06/27 05:00:52;;;;;;;30.25;25.80;;;;;;;17.37;90.13;101486.06;5212205;28;20025;-66
2021/06/27 05:03:23;;;;;;;27.92;25.10;;;;;;;17.42;90.00;101480.28;5212729;28;20543;-65
2021/06/27 05:05:55;;;;;;;28.13;25.23;;;;;;;17.40;89.60;101485.75;5212611;28;20034;-65
2021/06/27 05:08:26;;;;;;;27.58;24.98;;;;;;;17.43;90.11;101487.25;5212042;28;20478;-66
2021/06/27 05:10:58;;;;;;;28.27;25.50;;;;;;;17.43;89.79;101489.91;5212310;28;20037;-65
2021/06/27 05:13:29;;;;;;;27.57;24.73;;;;;;;17.52;89.54;101494.25;5212708;28;20030;-65
2021/06/27 05:16:01;;;;;;;27.83;24.93;;;;;;;17.48;89.60;101493.72;5211634;28;20026;-65
2021/06/27 05:18:32;;;;;;;28.80;25.80;;;;;;;17.53;89.36;101503.84;5210638;28;20057;-65
2021/06/27 05:21:04;;;;;;;26.95;24.10;;;;;;;17.55;89.08;101496.56;5211608;28;20080;-66
2021/06/27 05:23:35;;;;;;;28.33;25.25;;;;;;;17.59;89.30;101497.09;5211858;28;20512;-66
2021/06/27 05:26:06;;;;;;;27.00;24.27;;;;;;;17.63;89.08;101495.78;5211289;28;20092;-66
2021/06/27 05:28:38;;;;;;;26.23;23.65;;;;;;;17.72;89.11;101498.28;5211559;28;20033;-66
2021/06/27 05:31:09;;;;;;;27.13;24.52;;;;;;;17.81;89.46;101495.69;5211981;28;20033;-65
2021/06/27 05:33:40;;;;;;;26.33;23.58;;;;;;;17.88;89.29;101483.44;5212967;28;20037;-66
2021/06/27 05:36:12;;;;;;;27.33;24.63;;;;;;;17.93;88.44;101484.63;5211119;28;20045;-66
2021/06/27 05:38:43;;;;;;;28.65;25.75;;;;;;;18.03;88.21;101478.31;5212385;28;20093;-65
2021/06/27 05:41:15;;;;;;;27.10;24.58;;;;;;;18.14;88.11;101488.63;5211909;28;20033;-65
2021/06/27 05:43:46;;;;;;;27.15;24.38;;;;;;;18.23;86.89;101487.66;5210898;28;20025;-65
2021/06/27 05:46:17;;;;;;;25.60;23.00;;;;;;;18.24;86.25;101491.97;5211861;28;20033;-66
2021/06/27 05:48:49;;;;;;;25.65;23.15;;;;;;;18.38;86.82;101493.13;5212803;28;20026;-65
2021/06/27 05:51:20;;;;;;;25.50;22.80;;;;;;;18.47;86.32;101492.13;5211665;28;20049;-66
2021/06/27 05:53:52;;;;;;;24.45;22.05;;;;;;;18.56;85.69;101492.94;5211401;28;20107;-65
2021/06/27 05:56:24;;;;;;;24.55;21.92;;;;;;;18.63;85.16;101502.72;5214784;28;20029;-65
2021/06/27 05:58:55;;;;;;;24.23;21.70;;;;;;;18.67;85.03;101496.09;5215966;28;20033;-66
2021/06/27 06:01:26;;;;;;;23.53;21.33;;;;;;;18.71;85.36;101493.97;5216381;28;20517;-65
2021/06/27 06:03:57;;;;;;;24.33;21.73;;;;;;;18.77;84.53;101500.44;5214002;28;20096;-65
2021/06/27 06:06:29;;;;;;;23.58;21.27;;;;;;;18.86;84.75;101496.78;5214684;28;20077;-65
2021/06/27 06:09:00;;;;;;;22.70;20.57;;;;;;;18.90;84.57;101498.09;5215156;28;20036;-66
2021/06/27 06:11:31;;;;;;;23.80;21.33;;;;;;;18.93;83.58;101505.72;5215558;28;20030;-66
2021/06/27 06:14:03;;;;;;;22.42;20.23;;;;;;;19.04;83.99;101500.06;5215636;28;20038;-66
2021/06/27 06:16:34;;;;;;;23.93;21.53;;;;;;;19.05;83.58;101500.88;5214015;28;20083;-65
2021/06/27 06:19:05;;;;;;;22.50;20.23;;;;;;;19.13;83.26;101500.84;5215668;28;20026;-65
2021/06/27 06:21:37;;;;;;;22.80;20.60;;;;;;;19.21;82.84;101495.53;5215527;28;20030;-65
2021/06/27 06:24:08;;;;;;;22.33;20.17;;;;;;;19.33;81.93;101496.81;5213538;28;20084;-65
2021/06/27 06:26:40;;;;;;;24.03;19.97;;;;;;;19.39;81.61;101487.31;5214011;28;20475;-66
2021/06/27 06:29:11;;;;;;;20.50;18.53;;;;;;;19.43;80.01;101496.59;5215662;28;20057;-68
2021/06/27 06:31:43;;;;;;;21.47;19.30;;;;;;;19.57;79.87;101485.25;5214599;28;20036;-68
2021/06/27 06:34:14;;;;;;;21.97;19.77;;;;;;;19.74;80.38;101493.19;5214525;28;20060;-68
2021/06/27 06:36:47;;;;;;;22.30;19.90;;;;;;;19.95;81.23;101489.91;5214707;28;20025;-68
2021/06/27 06:39:19;;;;;;;21.23;19.13;;;;;;;20.05;79.81;101493.19;5214880;28;20057;-65
2021/06/27 06:41:50;;;;;;;20.60;18.53;;;;;;;20.13;78.65;101490.47;5214615;28;20146;-65
2021/06/27 06:44:21;;;;;;;23.27;20.87;;;;;;;20.22;77.64;101499.19;5214432;28;20060;-65
2021/06/27 06:46:53;;;;;;;20.70;18.67;;;;;;;20.26;77.37;101492.50;5213836;28;20056;-65
2021/06/27 06:49:24;;;;;;;21.90;19.70;;;;;;;20.38;76.88;101499.06;5214678;28;20523;-66
2021/06/27 06:51:55;;;;;;;19.43;17.43;;;;;;;20.51;77.18;101494.00;5212453;28;20028;-65
2021/06/27 06:54:26;;;;;;;21.20;18.90;;;;;;;20.62;76.78;101490.91;5214253;28;20093;-65
2021/06/27 06:56:58;;;;;;;21.17;18.30;;;;;;;20.77;76.43;101487.47;5213815;28;20037;-66
2021/06/27 06:59:29;;;;;;;20.90;18.03;;;;;;;20.84;75.84;101488.41;5212953;28;20132;-65
2021/06/27 07:02:00;;;;;;;20.07;18.17;;;;;;;20.93;75.46;101478.47;5214176;28;20053;-65
2021/06/27 07:04:32;;;;;;;18.13;16.37;;;;;;;21.04;73.60;101480.69;5212326;28;20065;-66
2021/06/27 07:07:03;;;;;;;19.63;17.73;;;;;;;21.03;73.36;101487.03;5213209;28;20029;-66
2021/06/27 07:09:35;;;;;;;20.03;16.97;;;;;;;21.05;73.11;101480.50;5212551;28;20120;-65
2021/06/27 07:12:07;;;;;;;18.37;16.30;;;;;;;21.20;74.16;101483.16;5213409;28;20691;-66
2021/06/27 07:14:38;;;;;;;18.77;16.75;;;;;;;21.35;75.29;101483.19;5214479;28;20061;-65
2021/06/27 07:17:09;;;;;;;18.07;16.17;;;;;;;21.44;74.01;101490.09;5214237;28;20022;-66
2021/06/27 07:19:41;;;;;;;18.43;16.60;;;;;;;21.55;74.05;101486.91;5213222;28;20021;-65
2021/06/27 07:22:12;;;;;;;21.13;17.27;;;;;;;21.68;74.26;101485.44;5207600;28;20044;-65
2021/06/27 07:24:43;;;;;;;19.23;17.33;;;;;;;21.64;73.49;101484.16;5206306;28;20511;-66
2021/06/27 07:27:14;;;;;;;18.60;16.80;;;;;;;21.68;72.81;101480.09;5210737;28;20028;-66
2021/06/27 07:29:46;;;;;;;19.93;17.57;;;;;;;21.78;73.38;101483.28;5212057;28;20050;-66
2021/06/27 07:32:17;;;;;;;21.37;16.40;;;;;;;21.93;73.27;101484.06;5210903;28;20026;-66
2021/06/27 07:34:48;;;;;;;18.57;16.77;;;;;;;21.92;72.80;101486.91;5212799;28;20026;-65
2021/06/27 07:37:20;;;;;;;19.23;17.33;;;;;;;21.97;73.73;101479.16;5213731;28;20033;-66
2021/06/27 07:39:51;;;;;;;19.87;17.97;;;;;;;22.02;71.19;101485.59;5213495;28;20778;-65
2021/06/27 07:42:22;;;;;;;20.00;18.00;;;;;;;22.11;71.41;101481.78;5211849;28;20034;-66
2021/06/27 07:44:54;;;;;;;19.60;17.50;;;;;;;22.14;71.66;101483.28;5212694;28;20014;-66
2021/06/27 07:47:25;;;;;;;19.27;17.40;;;;;;;22.21;71.15;101486.03;5213631;28;20084;-66
2021/06/27 07:49:57;;;;;;;19.40;17.47;;;;;;;22.18;71.75;101486.41;5212392;28;20029;-67
2021/06/27 07:52:28;;;;;;;18.47;16.57;;;;;;;22.29;71.57;101488.56;5213829;28;20562;-66
2021/06/27 07:54:59;;;;;;;19.83;17.73;;;;;;;22.41;71.69;101495.03;5212744;28;20033;-66
2021/06/27 07:57:31;;;;;;;19.63;17.50;;;;;;;22.40;72.31;101492.56;5212666;28;20141;-66
2021/06/27 08:00:04;;;;;;;18.77;16.97;;;;;;;22.55;71.27;101496.78;5212408;28;20036;-66
2021/06/27 08:02:37;;;;;;;18.05;16.15;;;;;;;22.59;70.60;101486.56;5211884;28;20546;-66
2021/06/27 08:05:09;;;;;;;;;;;;;;;22.90;70.88;101502.19;5208633;28;20491;-66
2021/06/27 08:07:40;;;;;;;19.60;17.35;;;;;;;22.71;69.96;101498.34;5209657;28;19948;-66
2021/06/27 08:10:12;;;;;;;18.23;16.17;;;;;;;22.75;71.18;101496.94;5212154;28;20029;-66
2021/06/27 08:12:44;;;;;;;18.13;16.43;;;;;;;22.81;70.58;101506.84;5212309;28;20029;-65
2021/06/27 08:15:18;;;;;;;19.77;17.80;;;;;;;22.77;69.58;101505.59;5210475;28;20049;-66
2021/06/27 08:17:51;;;;;;;19.77;17.88;;;;;;;22.75;69.95;101509.47;5209509;28;20030;-66
2021/06/27 08:20:23;;;;;;;20.15;17.10;;;;;;;22.89;69.20;101500.53;5210285;28;20034;-66
2021/06/27 08:22:55;;;;;;;18.23;15.80;;;;;;;23.00;69.74;101505.38;5208534;28;20120;-66
2021/06/27 08:25:26;;;;;;;19.27;17.37;;;;;;;23.06;69.08;101507.25;5206324;28;20033;-66
2021/06/27 08:27:57;;;;;;;22.80;15.17;;;;;;;23.15;69.05;101507.09;5210824;28;20040;-66
2021/06/27 08:30:29;;;;;;;18.13;16.43;;;;;;;23.20;70.11;101504.66;5211963;28;20442;-66
2021/06/27 08:33:00;;;;;;;18.53;16.73;;;;;;;23.27;70.80;101501.00;5212799;28;20026;-67
2021/06/27 08:35:32;;;;;;;17.77;16.13;;;;;;;23.35;69.54;101497.31;5212405;28;20030;-67
2021/06/27 08:38:03;;;;;;;17.87;15.73;;;;;;;23.41;68.24;101498.38;5211870;28;20026;-67
2021/06/27 08:40:36;;;;;;;17.17;15.48;;;;;;;23.51;66.97;101496.97;5212201;28;20022;-67
2021/06/27 08:43:08;;;;;;;17.95;16.17;;;;;;;23.60;67.52;101497.66;5212446;28;20022;-66
2021/06/27 08:45:53;;;;;;;17.05;15.43;;;;;;;23.69;67.69;101495.66;5211047;28;20030;-67
2021/06/27 08:48:26;;;;;;;17.67;15.98;;;;;;;23.74;66.38;101491.34;5210704;28;20551;-68
2021/06/27 08:50:58;;;;;;;18.45;16.40;;;;;;;23.82;67.49;101478.78;5210862;28;20018;-67
2021/06/27 08:53:31;;;;;;;17.13;15.33;;;;;;;23.99;67.10;101485.44;5213087;28;20157;-67
2021/06/27 08:56:07;;;;;;;16.83;15.23;;;;;;;24.09;65.99;101479.66;5211226;28;20558;-67
2021/06/27 08:58:44;;;;;;;16.15;14.57;;;;;;;24.30;66.13;101474.13;5212497;28;20034;-67
2021/06/27 09:01:21;;;;;;;16.17;14.57;;;;;;;24.48;64.81;101466.34;5212167;28;20092;-67
2021/06/27 09:03:55;;;;;;;15.57;13.98;;;;;;;24.58;64.57;101463.22;5213113;28;20382;-67
2021/06/27 09:06:32;;;;;;;15.68;14.10;;;;;;;24.76;64.30;101463.41;5211557;28;20088;-66
2021/06/27 09:09:20;;;;;;;16.02;14.52;;;;;;;24.86;63.29;101467.53;5212655;28;20030;-67
2021/06/27 09:12:06;;;;;;;16.25;14.65;;;;;;;24.91;62.72;101451.63;5211592;28;20034;-66
2021/06/27 09:14:43;;;;;;;16.33;14.73;;;;;;;24.93;62.82;101454.94;5212388;28;20057;-66
2021/06/27 09:17:17;;;;;;;17.60;15.85;;;;;;;24.91;63.27;101460.50;5210353;28;20026;-67
2021/06/27 09:19:52;;;;;;;17.60;14.30;;;;;;;25.02;62.08;101452.84;5210173;28;20479;-66
2021/06/27 09:22:26;;;;;;;15.43;13.93;;;;;;;25.08;62.40;101457.34;5211452;28;20391;-66
2021/06/27 09:25:13;;;;;;;15.10;13.50;;;;;;;25.19;62.27;101454.91;5211188;28;20113;-66
2021/06/27 09:27:45;;;;;;;15.20;13.55;;;;;;;25.16;61.16;101447.28;5210868;28;20117;-66
2021/06/27 09:30:21;;;;;;;16.40;14.80;;;;;;;25.19;61.98;101438.81;5213342;28;20505;-67
2021/06/27 09:32:54;;;;;;;14.88;13.40;;;;;;;25.23;60.15;101436.53;5215851;28;20037;-66
2021/06/27 09:35:40;;;;;;;14.40;12.60;;;;;;;25.45;59.88;101437.03;5214189;28;20033;-66
2021/06/27 09:38:21;;;;;;;13.88;12.13;;;;;;;25.31;56.85;101441.63;5214641;28;20491;-65
2021/06/27 09:40:59;;;;;;;12.90;11.60;;;;;;;25.29;57.47;101432.97;5230467;28;20487;-65
2021/06/27 09:43:33;;;;;;;13.05;10.98;;;;;;;25.56;56.92;101435.53;5216418;28;20380;-66
2021/06/27 09:46:11;;;;;;;13.50;12.18;;;;;;;25.68;57.13;101434.63;5213362;28;20040;-66
2021/06/27 09:48:54;;;;;;;14.68;13.18;;;;;;;25.74;58.37;101432.94;5215566;28;20057;-65
2021/06/27 09:51:28;;;;;;;12.73;11.52;;;;;;;25.83;59.52;101422.78;5215701;28;20025;-66
2021/06/27 09:54:00;;;;;;;15.02;13.52;;;;;;;25.88;57.86;101420.28;5214062;28;20058;-66
2021/06/27 09:56:37;;;;;;;13.13;11.82;;;;;;;25.93;57.89;101417.78;5214374;28;20026;-66
2021/06/27 09:59:10;;;;;;;12.23;11.02;;;;;;;26.01;56.05;101422.06;5213488;28;20032;-65
2021/06/27 10:01:42;;;;;;;13.77;11.80;;;;;;;26.05;57.73;101412.50;5213445;28;20077;-65
2021/06/27 10:04:27;;;;;;;13.18;11.93;;;;;;;26.09;54.87;101419.91;5214485;28;20033;-66
2021/06/27 10:07:01;;;;;;;13.90;11.70;;;;;;;26.03;54.34;101417.28;5215132;28;20026;-65
2021/06/27 10:09:41;;;;;;;11.50;10.50;;;;;;;26.14;53.23;101409.34;5215152;28;20033;-66
2021/06/27 10:12:18;;;;;;;12.85;11.70;;;;;;;26.18;53.58;101396.31;5211856;28;20069;-66
2021/06/27 10:14:51;;;;;;;10.98;9.98;;;;;;;26.40;54.02;101399.38;5213886;28;20483;-66
2021/06/27 10:17:23;;;;;;;;;;;;;;;26.78;52.63;101401.09;5214329;28;20061;-65
2021/06/27 10:19:56;;;;;;;14.07;12.70;;;;;;;26.50;54.63;101390.84;5212788;28;20298;-65
2021/06/27 10:22:31;;;;;;;15.80;12.73;;;;;;;26.86;55.07;101396.25;5212588;28;20060;-65
2021/06/27 10:25:06;;;;;;;14.13;12.55;;;;;;;26.79;53.93;101390.13;5213647;28;20032;-65
2021/06/27 10:27:37;;;;;;;13.80;12.50;;;;;;;26.83;55.46;101391.31;5213324;28;20603;-66
2021/06/27 10:30:11;;;;;;;11.45;10.45;;;;;;;27.16;55.38;101385.56;5214803;28;20026;-67
2021/06/27 10:32:43;;;;;;;12.02;10.82;;;;;;;27.23;53.70;101385.47;5210404;28;20410;-65
2021/06/27 10:35:15;;;;;;;13.40;11.50;;;;;;;27.23;53.73;101381.94;5215467;28;20033;-66
2021/06/27 10:37:47;;;;;;;11.77;10.63;;;;;;;27.24;52.22;101379.06;5215298;28;20104;-65
2021/06/27 10:40:19;;;;;;;11.32;10.27;;;;;;;27.36;52.99;101376.41;5213767;28;20387;-65
2021/06/27 10:42:50;;;;;;;12.27;11.18;;;;;;;27.32;52.91;101383.28;5213715;28;20028;-66
2021/06/27 10:45:25;;;;;;;12.47;10.23;;;;;;;27.52;52.31;101378.44;5214632;28;20034;-65
2021/06/27 10:47:58;;;;;;;10.85;9.80;;;;;;;27.39;50.72;101373.25;5214581;28;20096;-66
2021/06/27 10:50:49;;;;;;;12.20;9.80;;;;;;;27.50;52.06;101366.25;5214611;28;20444;-66
2021/06/27 10:53:20;;;;;;;8.38;7.57;;;;;;;27.43;50.39;101374.44;5213474;28;20384;-66
2021/06/27 10:55:58;;;;;;;9.13;7.87;;;;;;;27.61;52.18;101370.84;5211708;28;20033;-66
2021/06/27 10:58:38;;;;;;;9.55;8.52;;;;;;;27.70;51.75;101368.66;5213764;28;20036;-66
2021/06/27 11:01:12;;;;;;;8.77;7.95;;;;;;;27.58;48.97;101363.25;5213950;28;20076;-66
2021/06/27 11:03:45;;;;;;;9.50;7.30;;;;;;;27.78;49.91;101365.66;5212721;28;20041;-66
2021/06/27 11:06:17;;;;;;;7.53;6.78;;;;;;;27.70;48.74;101366.78;5211280;28;20034;-66
2021/06/27 11:08:49;;;;;;;7.93;7.07;;;;;;;27.78;48.20;101353.00;5212567;28;20259;-66
2021/06/27 11:11:23;;;;;;;8.20;6.68;;;;;;;27.88;50.61;101353.28;5208971;28;20346;-66
2021/06/27 11:14:17;;;;;;;8.00;7.03;;;;;;;28.07;48.57;101350.44;5210862;28;20423;-67
2021/06/27 11:16:56;;;;;;;10.85;6.93;;;;;;;27.88;47.53;101350.56;5209910;28;20563;-66
2021/06/27 11:19:40;;;;;;;6.53;5.70;;;;;;;28.00;49.04;101353.28;5211732;28;20030;-66
2021/06/27 11:22:20;;;;;;;8.07;7.32;;;;;;;27.94;47.28;101343.41;5211544;28;20026;-67
2021/06/27 11:24:54;;;;;;;7.10;6.40;;;;;;;28.24;47.30;101345.19;5211962;28;20022;-66
2021/06/27 11:27:32;;;;;;;7.05;6.35;;;;;;;28.18;46.38;101357.72;5211364;28;20113;-66
2021/06/27 11:30:18;;;;;;;7.65;6.85;;;;;;;28.32;46.84;101348.34;5213839;28;20037;-66
2021/06/27 11:32:50;;;;;;;7.03;6.35;;;;;;;28.54;47.30;101347.75;5211647;28;20506;-65
2021/06/27 11:35:43;;;;;;;9.77;7.90;;;;;;;28.56;46.81;101343.78;5209482;28;20547;-66
2021/06/27 11:38:44;;;;;;;8.98;7.90;;;;;;;28.55;47.66;101331.34;5210016;28;20029;-66